Eduardo Morales

Olheiro-Chefe - Lanús
3 Fev 2028
Quinta-feira
Processo

Personalidade

Adaptabilidade (16) Ambição (9) Controvérsia (9) Lealdade (13) Pressão (14) Profissionalismo (3) Espírito Esportivo (8) Temperamento (8)

Perfil

Estilo de Treinamento Democrático
Licença Nacional B
Determinação 12
Gestão de Pessoas 14
Motivação 14
Disciplina 9
Satisfação no Trabalho
100%
Fadiga
0%
Função Olheiro-Chefe
Salário 50.5K p/s
Contrato 14.03.2028

Desempenho

Comportamento Bom
Eficácia do Treinamento
38%
Desenvolvimento do Jogador
45%
Prevenção de Lesões
25%
Implementação Tática
25%

Eventos Recentes

Negociação de contrato iniciada agora
Participou de uma reunião de recrutamento agora
Recomendou um alvo de transferência agora
Negociação de contrato iniciada 7d atrás
Negociação de contrato iniciada 7d atrás
Negociação de contrato iniciada 7d atrás
Negociação de contrato iniciada 7d atrás
Negociação de contrato iniciada 7d atrás

Monitorando agora

161
Jogador Clube Status Habilidade Confiança Observado Última observação Último voto
Agustín Medina Valencia Ativo 118 / 140 40% 3 01.12.2027 -
Nicolas Sport Recife Ativo 102 / 119 40% 2 01.12.2027 -
Ez Abde Girona Ativo 144 / 153 40% 1 30.11.2027 -
Jonathan David Juventus Ativo 172 / 172 40% 1 30.11.2027 -
Mikkel Hope Haugesund Ativo 99 / 110 40% 5 29.11.2027 -
Mauro Carrizo Atlético Tucumán Ativo 92 / 98 40% 2 29.11.2027 -
Matías Canedo Rampla Juniors Ativo 84 / 87 40% 1 26.11.2027 -
Tobias Moi Bodo/Glimt Ativo 106 / 111 40% 2 25.11.2027 -
Fillip Jenssen Riise Stabaek Ativo 94 / 111 40% 4 23.11.2027 -
Samuel Posada Leones Ativo 82 / 100 40% 3 23.11.2027 -
Ignacio Fernández Boston River Ativo 90 / 94 40% 2 22.11.2027 -
Tobías Andrada Virtus Entella Ativo 112 / 147 40% 4 22.11.2027 -
Bahia Criciuma Ativo 116 / 125 40% 3 21.11.2027 -
Agustín Obregón River Plate Ativo 117 / 112 40% 1 21.11.2027 -
Yury Oyarzo Racing Ativo 96 / 90 40% 1 19.11.2027 -
Mohamed Bolivar Barranquilla Ativo 96 / 93 40% 1 18.11.2027 -
José Correa Deportivo Tachira Ativo 89 / 106 40% 1 18.11.2027 -
Olaniyi Saheed Kwara United Ativo 91 / 99 40% 3 12.11.2027 -
Joel Ezra Enyimba Ativo 91 / 104 40% 3 11.11.2027 -
Dominik Chong Qui Atlanta United FC Ativo 86 / 115 40% 1 10.11.2027 -
Juan Camilo Córdoba Deportivo Pereira Ativo 88 / 91 40% 6 06.11.2027 -
Tyson Pearce St. Louis CITY SC Ativo 88 / 92 40% 2 04.11.2027 -
Lucas Camejo River Plate Ativo 82 / 85 40% 2 03.11.2027 -
Gift Udoh Ikorodu City Ativo 88 / 102 40% 1 03.11.2027 -
Elkin Rivero Atletico Nacional Ativo 109 / 109 40% 1 02.11.2027 -
Felipe Obradovich Ferro Carril Oeste Ativo 116 / 119 40% 2 28.10.2027 -
Hosea Michael Remo Stars Ativo 98 / 93 40% 1 27.10.2027 -
Ángel Aguayo Sol de America Ativo 97 / 110 40% 1 24.10.2027 -
Dylan Gorosito Villarreal Ativo 132 / 112 40% 1 23.10.2027 -
Thiago Helguera Braga Ativo 110 / 135 40% 2 22.10.2027 -
Tiago Gordillo San Miguel Ativo 75 / 98 40% 1 22.10.2027 -
Germán Barbas Penarol Ativo 102 / 114 40% 1 20.10.2027 -
Josh King Chelsea Ativo 148 / 150 40% 1 20.10.2027 -
Celías Ingenthron Vélez Ativo 125 / 112 40% 1 16.10.2027 -
Matías Gómez Granada Ativo 110 / 118 40% 1 15.10.2027 -
Daniel Gomez Valledupar Ativo 98 / 104 40% 1 11.10.2027 -
Martín Jiménez Audax Italiano Ativo 100 / 99 40% 1 08.10.2027 -
Samuel Martín Millonarios Ativo 106 / 122 40% 1 06.10.2027 -
Gonzalo Siri Argentinos Juniors Ativo 102 / 97 40% 3 01.06.2027 -
Yankuba Minteh Brighton Ativo 144 / 148 40% 7 30.05.2027 -
Nicolò Savona Nottingham Forest Ativo 140 / 133 40% 3 27.05.2027 -
Marquinhos Spartak Moscow Ativo 148 / 120 40% 4 27.05.2027 -
Ilias Akhomach Villarreal Ativo 143 / 136 40% 2 24.05.2027 -
Jofre Torrents Ajax Ativo 112 / 121 40% 1 19.05.2027 -
Jhon Jhon Zenit Ativo 146 / 120 40% 2 02.05.2027 -
Christ Inao Oulaï Fiorentina Ativo 137 / 137 40% 1 29.04.2027 -
Facundo Bernal Betis Ativo 150 / 132 40% 1 26.04.2027 -
Gustavo Mantuan Zenit Ativo 143 / 120 40% 4 15.04.2027 -
Georges-Kévin Nkoudou Al-Diriyah Ativo 144 / 112 40% 5 04.04.2027 -
Rubens Dinamo Moscow Ativo 120 / 116 40% 2 02.04.2027 -
Marco Bellich Juve Stabia Ativo 142 / 139 40% 1 02.04.2027 -
Crysencio Summerville Al-Hilal Ativo 128 / 152 40% 3 31.03.2027 -
Yacine Adli Al-Shabab Ativo 140 / 153 40% 3 23.03.2027 -
Dion Lopy Al-Ittihad Ativo 148 / 124 40% 1 23.03.2027 -
Eduard Spertsyan Al-Ahli Ativo 150 / 146 40% 1 19.03.2027 -
Samú Al-Nassr Ativo 145 / 134 40% 3 17.03.2027 -
Maxim Glushenkov Zenit Ativo 133 / 132 40% 5 13.03.2027 -
Trezeguet Al-Riyadh Ativo 114 / 142 40% 1 10.03.2027 -
Matheus Gonçalves Al-Ahli Ativo 139 / 143 40% 1 08.03.2027 -
Matvey Kislyak CSKA Moscow Ativo 125 / 129 40% 3 03.03.2027 -
Marquinhos APOEL Ativo 127 / 124 40% 2 25.02.2027 -
Danil Glebov Dinamo Moscow Ativo 112 / 116 40% 2 16.02.2027 -
Galeno Al-Ahli Ativo 138 / 136 40% 1 12.02.2027 -
Oscar Al-Taawoun Ativo 161 / 153 40% 2 10.02.2027 -
Marcelo Allende Mamelodi Sundowns Ativo 151 / 130 40% 1 07.02.2027 -
Álex Centelles Levski Ativo 128 / 142 40% 3 26.01.2027 -
Bradley Tau SuperSport United Ativo 145 / 122 40% 2 23.01.2027 -
Ali Majrashi Al-Ahli Ativo 119 / 144 40% 1 21.01.2027 -
Victor Parada Spartak Moscow Ativo 132 / 128 40% 1 21.01.2027 -
Filip Kaloč Ludogorets Ativo 144 / 120 40% 2 16.01.2027 -
Tomás Silva Platense Ativo 124 / 125 40% 1 12.01.2027 -
Alexandr Chernikov Krasnodar Ativo 126 / 126 40% 2 11.01.2027 -
Mahamadou Doumbia Al-Ittihad Ativo 121 / 130 40% 1 07.01.2027 -
Dean Huijsen Villarreal Ativo 140 / 149 40% 1 02.01.2027 -
Nail Umyarov Spartak Moscow Ativo 134 / 140 40% 1 31.12.2026 -
Santiago González Tigre Ativo 132 / 130 40% 1 30.12.2026 -
Alexandr Siljanov Lokomotiv Moscow Ativo 139 / 140 40% 1 29.12.2026 -
Tahiel Peralta Huracán Ativo 105 / 110 51% 1 28.12.2026 -
Reda Khadra Qarabag Ativo 133 / 127 40% 1 28.12.2026 -
Batxi Krasnodar Ativo 138 / 144 40% 1 26.12.2026 -
Mauro Arambarri River Plate Ativo 155 / 163 40% 2 22.12.2026 -
César Ibáñez Huracán Ativo 119 / 127 40% 1 21.12.2026 -
Nobel Mendy Hull City Ativo 143 / 140 40% 1 17.12.2026 -
Facundo Zabala Independiente Ativo 115 / 121 40% 1 17.12.2026 -
Eric Meza Estudiantes Ativo 124 / 135 40% 1 16.12.2026 -
Oleksii Hutsuliak Polissia Ativo 131 / 119 75% 4 04.12.2026 Fortemente a favor
Lewis Morgan SuperSport United Ativo 118 / 123 40% 2 01.12.2026 -
Moussa Dembélé CR Belouizdad Ativo 137 / 124 40% 1 29.11.2026 Mais informações
Luka Kurtovic NK Domzale Ativo 128 / 116 40% 2 28.11.2026 -
Manfred Ugalde Spartak Moscow Ativo 114 / 145 40% 5 25.11.2026 -
Younes Ebnoutalib Eintracht Frankfurt Ativo 126 / 137 40% 1 25.11.2026 -
Yusuke Matsuo Esteghlal Ativo 124 / 129 40% 4 24.11.2026 -
Alan Lescano Argentinos Juniors Ativo 143 / 119 40% 2 24.11.2026 -
Wendel Zenit Ativo 156 / 155 40% 2 21.11.2026 -
Franco Ibarra Rosario Central Ativo 130 / 129 40% 1 21.11.2026 -
Mojmír Chytil NK Maribor Ativo 148 / 144 40% 1 18.11.2026 -
Martín Ojeda Orlando City Ativo 115 / 127 40% 2 17.11.2026 -
Théo Hernández Al-Hilal Ativo 162 / 138 40% 1 15.11.2026 -
Karim Konaté Red Bull Salzburg Ativo 147 / 147 40% 3 13.11.2026 -
Ryan Gauld Vancouver Whitecaps Ativo 121 / 133 40% 1 13.11.2026 -
Brais Méndez Columbus Crew Ativo 134 / 159 40% 4 10.11.2026 -
Wessam Abou Ali Columbus Crew Ativo 123 / 112 40% 1 10.11.2026 -
Esequiel Barco Spartak Moscow Ativo 125 / 122 40% 1 10.11.2026 -
Alexandr Sobolev Zenit Ativo 125 / 136 40% 3 06.11.2026 -
Senny Mayulu Paris Saint-Germain Ativo 144 / 139 40% 1 05.11.2026 -
Myrto Uzuni Austin FC Ativo 131 / 117 40% 3 04.11.2026 -
Emanuel Coronel Rosario Central Ativo 138 / 118 40% 1 02.11.2026 -
Alan Velasco Boca Juniors Ativo 116 / 117 40% 1 01.11.2026 -
Rubén Duarte Legia Ativo 130 / 119 40% 1 28.10.2026 -
Lucas Assadi AIK Ativo 137 / 145 40% 1 28.10.2026 -
Pep Biel Charlotte Football Club Ativo 120 / 138 40% 1 24.10.2026 -
Bamba Dieng Crvena Zvezda Ativo 119 / 121 40% 1 20.10.2026 -
Jordan Morris Seattle Sounders Ativo 139 / 143 40% 1 16.10.2026 -
Gabriel Jesus Barcelona Ativo 140 / 154 40% 6 15.10.2026 -
Jonathan Bamba Chicago Fire Ativo 125 / 119 40% 2 15.10.2026 -
Nazareno Colombo Racing Club Ativo 115 / 133 40% 1 15.10.2026 -
Felipe Augusto Zenit Ativo 113 / 130 40% 5 14.10.2026 -
Musa Barrow Al-Khaleej Ativo 154 / 140 40% 1 09.10.2026 -
Ruben van Bommel Ferencvaros Ativo 120 / 117 40% 2 07.10.2026 -
Marcel Hartel St. Louis CITY SC Ativo 120 / 130 40% 1 07.10.2026 -
Leo Ceara Kashima Antlers Ativo 125 / 145 40% 1 03.10.2026 -
Nicolò Tresoldi Club Brugge Ativo 132 / 127 40% 2 29.09.2026 -
Romelu Castagne KV Oostende Ativo 120 / 143 40% 2 26.09.2026 -
Iván Angulo Orlando City Ativo 128 / 114 40% 1 23.09.2026 -
Maurits Kjærgaard Red Bull Salzburg Ativo 116 / 119 40% 1 23.09.2026 -
Luka Jović AEK Ativo 118 / 151 40% 1 22.09.2026 -
Rodrigo Echeverría Leon Ativo 127 / 131 40% 2 21.09.2026 -
Diego Lainez Tigres Ativo 145 / 136 40% 1 21.09.2026 -
Breel Embolo Atlanta United FC Ativo 124 / 140 40% 1 19.09.2026 -
Alexey Miranchuk St. Gallen Ativo 134 / 150 40% 1 19.09.2026 -
Sebastián Córdova Pumas UNAM Ativo 138 / 129 40% 1 18.09.2026 -
Orbelín Pineda Monterrey Ativo 156 / 122 40% 1 18.09.2026 -
Tiago Palacios Estudiantes Ativo 118 / 133 40% 1 17.09.2026 -
Richard Ledezma Guadalajara Ativo 150 / 141 40% 1 16.09.2026 -
Jannenson Sarmiento Junior Ativo 123 / 111 40% 1 16.09.2026 -
Agustín Palavecino Cruz Azul Ativo 141 / 140 40% 1 16.09.2026 -
Barış Alper Yılmaz Galatasaray Ativo 140 / 138 40% 3 14.09.2026 -
Kerem Aktürkoğlu Fenerbahce Ativo 137 / 122 40% 2 11.09.2026 -
Víctor Dávila Club America Ativo 113 / 141 40% 1 11.09.2026 -
Richard Martinez Veracruz Ativo 122 / 133 40% 1 11.09.2026 -
Carlos Rotondi Cruz Azul Ativo 116 / 120 40% 2 09.09.2026 -
Yuki Kakita Kashima Antlers Ativo 115 / 112 40% 1 06.09.2026 -
Mutsuki Kato Sanfrecce Hiroshima Ativo 113 / 128 40% 1 05.09.2026 -
Erison Kawasaki Frontale Ativo 132 / 131 40% 1 02.09.2026 -
Ángel Correa River Plate Ativo 138 / 141 40% 2 01.09.2026 -
Youssef En-Nesyri Al-Ittihad Ativo 123 / 148 40% 1 30.08.2026 -
Adnan Courtois KV Oostende Ativo 116 / 115 40% 1 29.08.2026 -
Sam Surridge Nashville SC Ativo 123 / 139 40% 1 28.08.2026 -
Oussama Idrissi Pachuca Ativo 145 / 151 40% 1 28.08.2026 Mais informações
Ernest Muçi Trabzonspor Ativo 122 / 130 40% 2 26.08.2026 -
Diego Rossi Monterrey Ativo 113 / 133 40% 1 25.08.2026 -
Takuma Asano Sanfrecce Hiroshima Ativo 120 / 138 40% 1 22.08.2026 -
Jesús Ricardo Angulo Toluca Ativo 112 / 120 40% 1 19.08.2026 -
Clayton Olympiacos Ativo 132 / 139 40% 1 19.08.2026 -
Jesús Angulo Tigres Ativo 135 / 142 40% 1 12.08.2026 -
Jesús Gallardo Toluca Ativo 144 / 125 40% 1 06.08.2026 -
Jesús Orozco Chiquete Cruz Azul Ativo 132 / 130 40% 1 04.08.2026 -
Gerardo Arteaga Monterrey Ativo 147 / 131 40% 1 04.08.2026 -
Federico Varese Racing Ativo 117 / 103 40% 1 03.08.2026 -
Diego Romero Universitario Ativo 118 / 130 40% 1 03.08.2026 -
Germán Valera Elche Ativo 129 / 130 40% 1 01.08.2026 -